sensor_id;sensor_type;location;lat;lon;timestamp;temperature;humidity
20400;DHT22;10359;53.596;22.520;2022-12-07T00:00:56;1.60;99.90
20400;DHT22;10359;53.596;22.520;2022-12-07T00:03:56;1.60;99.90
20400;DHT22;10359;53.596;22.520;2022-12-07T00:06:52;1.60;99.90
20400;DHT22;10359;53.596;22.520;2022-12-07T00:09:42;1.60;99.90
20400;DHT22;10359;53.596;22.520;2022-12-07T00:12:31;1.50;99.90
20400;DHT22;10359;53.596;22.520;2022-12-07T00:15:20;1.60;99.90
20400;DHT22;10359;53.596;22.520;2022-12-07T00:18:10;1.50;99.90
20400;DHT22;10359;53.596;22.520;2022-12-07T00:21:02;1.60;99.90
20400;DHT22;10359;53.596;22.520;2022-12-07T00:23:53;1.60;99.90
20400;DHT22;10359;53.596;22.520;2022-12-07T00:26:43;1.60;99.90
20400;DHT22;10359;53.596;22.520;2022-12-07T00:29:33;1.50;99.90
20400;DHT22;10359;53.596;22.520;2022-12-07T00:32:22;1.60;99.90
20400;DHT22;10359;53.596;22.520;2022-12-07T00:35:12;1.60;99.90
20400;DHT22;10359;53.596;22.520;2022-12-07T00:38:03;1.50;99.90
20400;DHT22;10359;53.596;22.520;2022-12-07T00:40:56;1.50;99.90
20400;DHT22;10359;53.596;22.520;2022-12-07T00:43:47;1.50;99.90
20400;DHT22;10359;53.596;22.520;2022-12-07T00:46:37;1.50;99.90
20400;DHT22;10359;53.596;22.520;2022-12-07T00:49:26;1.50;99.90
20400;DHT22;10359;53.596;22.520;2022-12-07T00:52:16;1.50;99.90
20400;DHT22;10359;53.596;22.520;2022-12-07T00:55:08;1.50;99.90
20400;DHT22;10359;53.596;22.520;2022-12-07T00:57:57;1.50;99.90
20400;DHT22;10359;53.596;22.520;2022-12-07T01:00:46;1.50;99.90
20400;DHT22;10359;53.596;22.520;2022-12-07T01:03:36;1.50;99.90
20400;DHT22;10359;53.596;22.520;2022-12-07T01:06:26;1.50;99.90
20400;DHT22;10359;53.596;22.520;2022-12-07T01:09:15;1.50;99.90
20400;DHT22;10359;53.596;22.520;2022-12-07T01:12:06;1.40;99.90
20400;DHT22;10359;53.596;22.520;2022-12-07T01:14:56;1.50;99.90
20400;DHT22;10359;53.596;22.520;2022-12-07T01:17:45;1.40;99.90
20400;DHT22;10359;53.596;22.520;2022-12-07T01:20:35;1.40;99.90
20400;DHT22;10359;53.596;22.520;2022-12-07T01:23:25;1.40;99.90
20400;DHT22;10359;53.596;22.520;2022-12-07T01:26:17;1.50;99.90
20400;DHT22;10359;53.596;22.520;2022-12-07T01:29:08;1.50;99.90
20400;DHT22;10359;53.596;22.520;2022-12-07T01:31:57;1.50;99.90
20400;DHT22;10359;53.596;22.520;2022-12-07T01:34:48;1.60;99.90
20400;DHT22;10359;53.596;22.520;2022-12-07T01:37:38;1.60;99.90
20400;DHT22;10359;53.596;22.520;2022-12-07T01:40:28;1.60;99.90
20400;DHT22;10359;53.596;22.520;2022-12-07T01:43:18;1.60;99.90
20400;DHT22;10359;53.596;22.520;2022-12-07T01:46:09;1.60;99.90
20400;DHT22;10359;53.596;22.520;2022-12-07T01:48:59;1.50;99.90
20400;DHT22;10359;53.596;22.520;2022-12-07T01:51:50;1.50;99.90
20400;DHT22;10359;53.596;22.520;2022-12-07T01:54:41;1.50;99.90
20400;DHT22;10359;53.596;22.520;2022-12-07T01:57:31;1.50;99.90
20400;DHT22;10359;53.596;22.520;2022-12-07T02:00:22;1.50;99.90
20400;DHT22;10359;53.596;22.520;2022-12-07T02:03:16;1.50;99.90
20400;DHT22;10359;53.596;22.520;2022-12-07T02:06:08;1.50;99.90
20400;DHT22;10359;53.596;22.520;2022-12-07T02:08:58;1.60;99.90
20400;DHT22;10359;53.596;22.520;2022-12-07T02:11:48;1.50;99.90
20400;DHT22;10359;53.596;22.520;2022-12-07T02:14:40;1.50;99.90
20400;DHT22;10359;53.596;22.520;2022-12-07T02:17:36;1.40;99.90
20400;DHT22;10359;53.596;22.520;2022-12-07T02:20:31;1.50;99.90
20400;DHT22;10359;53.596;22.520;2022-12-07T02:23:41;1.50;99.90
20400;DHT22;10359;53.596;22.520;2022-12-07T02:27:02;1.60;99.90
20400;DHT22;10359;53.596;22.520;2022-12-07T02:30:03;1.60;99.90
20400;DHT22;10359;53.596;22.520;2022-12-07T02:32:57;1.50;99.90
20400;DHT22;10359;53.596;22.520;2022-12-07T02:35:54;1.50;99.90
20400;DHT22;10359;53.596;22.520;2022-12-07T02:38:51;1.60;99.90
20400;DHT22;10359;53.596;22.520;2022-12-07T02:41:47;1.50;99.90
20400;DHT22;10359;53.596;22.520;2022-12-07T02:44:37;1.40;99.90
20400;DHT22;10359;53.596;22.520;2022-12-07T02:47:30;1.50;99.90
20400;DHT22;10359;53.596;22.520;2022-12-07T02:50:22;1.50;99.90
20400;DHT22;10359;53.596;22.520;2022-12-07T02:53:30;1.60;99.90
20400;DHT22;10359;53.596;22.520;2022-12-07T02:56:26;1.50;99.90
20400;DHT22;10359;53.596;22.520;2022-12-07T02:59:25;1.50;99.90
20400;DHT22;10359;53.596;22.520;2022-12-07T03:02:23;1.50;99.90
20400;DHT22;10359;53.596;22.520;2022-12-07T03:06:02;1.50;99.90
20400;DHT22;10359;53.596;22.520;2022-12-07T03:09:01;1.60;99.90
20400;DHT22;10359;53.596;22.520;2022-12-07T03:12:03;1.60;99.90
20400;DHT22;10359;53.596;22.520;2022-12-07T03:15:00;1.60;99.90
20400;DHT22;10359;53.596;22.520;2022-12-07T03:17:53;1.50;99.90
20400;DHT22;10359;53.596;22.520;2022-12-07T03:20:47;1.60;99.90
20400;DHT22;10359;53.596;22.520;2022-12-07T03:23:41;1.60;99.90
20400;DHT22;10359;53.596;22.520;2022-12-07T03:26:35;1.60;99.90
20400;DHT22;10359;53.596;22.520;2022-12-07T03:29:28;1.60;99.90
20400;DHT22;10359;53.596;22.520;2022-12-07T03:32:24;1.60;99.90
20400;DHT22;10359;53.596;22.520;2022-12-07T03:35:18;1.60;99.90
20400;DHT22;10359;53.596;22.520;2022-12-07T03:38:16;1.70;99.90
20400;DHT22;10359;53.596;22.520;2022-12-07T03:41:11;1.70;99.90
20400;DHT22;10359;53.596;22.520;2022-12-07T03:44:01;1.60;99.90
20400;DHT22;10359;53.596;22.520;2022-12-07T03:47:00;1.60;99.90
20400;DHT22;10359;53.596;22.520;2022-12-07T03:49:53;1.60;99.90
20400;DHT22;10359;53.596;22.520;2022-12-07T03:52:46;1.50;99.90
20400;DHT22;10359;53.596;22.520;2022-12-07T03:55:39;1.60;99.90
20400;DHT22;10359;53.596;22.520;2022-12-07T03:58:33;1.60;99.90
20400;DHT22;10359;53.596;22.520;2022-12-07T04:01:23;1.70;99.90
20400;DHT22;10359;53.596;22.520;2022-12-07T04:04:14;1.70;99.90
20400;DHT22;10359;53.596;22.520;2022-12-07T04:07:03;1.70;99.90
20400;DHT22;10359;53.596;22.520;2022-12-07T04:09:53;1.60;99.90
20400;DHT22;10359;53.596;22.520;2022-12-07T04:12:43;1.70;99.90
20400;DHT22;10359;53.596;22.520;2022-12-07T04:15:34;1.60;99.90
20400;DHT22;10359;53.596;22.520;2022-12-07T04:18:24;1.70;99.90
20400;DHT22;10359;53.596;22.520;2022-12-07T04:21:14;1.70;99.90
20400;DHT22;10359;53.596;22.520;2022-12-07T04:24:04;1.60;99.90
20400;DHT22;10359;53.596;22.520;2022-12-07T04:26:54;1.60;99.90
20400;DHT22;10359;53.596;22.520;2022-12-07T04:29:44;1.60;99.90
20400;DHT22;10359;53.596;22.520;2022-12-07T04:32:36;1.60;99.90
20400;DHT22;10359;53.596;22.520;2022-12-07T04:35:26;1.60;99.90
20400;DHT22;10359;53.596;22.520;2022-12-07T04:38:16;1.60;99.90
20400;DHT22;10359;53.596;22.520;2022-12-07T04:41:06;1.60;99.90
20400;DHT22;10359;53.596;22.520;2022-12-07T04:43:58;1.50;99.90
20400;DHT22;10359;53.596;22.520;2022-12-07T04:46:48;1.60;99.90
20400;DHT22;10359;53.596;22.520;2022-12-07T04:49:39;1.60;99.90
20400;DHT22;10359;53.596;22.520;2022-12-07T04:52:29;1.70;99.90
20400;DHT22;10359;53.596;22.520;2022-12-07T04:55:19;1.70;99.90
20400;DHT22;10359;53.596;22.520;2022-12-07T04:58:09;1.70;99.90
20400;DHT22;10359;53.596;22.520;2022-12-07T05:00:58;1.70;99.90
20400;DHT22;10359;53.596;22.520;2022-12-07T05:03:48;1.70;99.90
20400;DHT22;10359;53.596;22.520;2022-12-07T05:06:39;1.70;99.90
20400;DHT22;10359;53.596;22.520;2022-12-07T05:09:29;1.80;99.90
20400;DHT22;10359;53.596;22.520;2022-12-07T05:12:19;1.80;99.90
20400;DHT22;10359;53.596;22.520;2022-12-07T05:15:09;1.80;99.90
20400;DHT22;10359;53.596;22.520;2022-12-07T05:17:59;1.80;99.90
20400;DHT22;10359;53.596;22.520;2022-12-07T05:20:49;1.70;99.90
20400;DHT22;10359;53.596;22.520;2022-12-07T05:23:41;1.80;99.90
20400;DHT22;10359;53.596;22.520;2022-12-07T05:26:31;1.80;99.90
20400;DHT22;10359;53.596;22.520;2022-12-07T05:29:21;1.80;99.90
20400;DHT22;10359;53.596;22.520;2022-12-07T05:32:10;1.80;99.90
20400;DHT22;10359;53.596;22.520;2022-12-07T05:35:00;1.80;99.90
20400;DHT22;10359;53.596;22.520;2022-12-07T05:37:50;1.70;99.90
20400;DHT22;10359;53.596;22.520;2022-12-07T05:40:41;1.70;99.90
20400;DHT22;10359;53.596;22.520;2022-12-07T05:43:31;1.70;99.90
20400;DHT22;10359;53.596;22.520;2022-12-07T05:46:22;1.80;99.90
20400;DHT22;10359;53.596;22.520;2022-12-07T05:49:11;1.80;99.90
20400;DHT22;10359;53.596;22.520;2022-12-07T05:52:02;1.80;99.90
20400;DHT22;10359;53.596;22.520;2022-12-07T05:54:52;1.80;99.90
20400;DHT22;10359;53.596;22.520;2022-12-07T05:57:43;1.80;99.90
20400;DHT22;10359;53.596;22.520;2022-12-07T06:00:54;1.80;99.90
20400;DHT22;10359;53.596;22.520;2022-12-07T06:03:43;1.70;99.90
20400;DHT22;10359;53.596;22.520;2022-12-07T06:06:33;1.80;99.90
20400;DHT22;10359;53.596;22.520;2022-12-07T06:09:24;1.80;99.90
20400;DHT22;10359;53.596;22.520;2022-12-07T06:12:14;1.80;99.90
20400;DHT22;10359;53.596;22.520;2022-12-07T06:15:22;1.80;99.90
20400;DHT22;10359;53.596;22.520;2022-12-07T06:18:13;1.80;99.90
20400;DHT22;10359;53.596;22.520;2022-12-07T06:21:03;1.80;99.90
20400;DHT22;10359;53.596;22.520;2022-12-07T06:23:53;1.90;99.90
20400;DHT22;10359;53.596;22.520;2022-12-07T06:26:43;1.80;99.90
20400;DHT22;10359;53.596;22.520;2022-12-07T06:29:33;1.80;99.90
20400;DHT22;10359;53.596;22.520;2022-12-07T06:32:24;1.80;99.90
20400;DHT22;10359;53.596;22.520;2022-12-07T06:35:14;1.80;99.90
20400;DHT22;10359;53.596;22.520;2022-12-07T06:38:04;1.80;99.90
20400;DHT22;10359;53.596;22.520;2022-12-07T06:40:53;1.90;99.90
20400;DHT22;10359;53.596;22.520;2022-12-07T06:43:43;1.90;99.90
20400;DHT22;10359;53.596;22.520;2022-12-07T06:46:39;1.90;99.90
20400;DHT22;10359;53.596;22.520;2022-12-07T06:49:30;2.00;99.90
20400;DHT22;10359;53.596;22.520;2022-12-07T06:52:20;2.00;99.90
20400;DHT22;10359;53.596;22.520;2022-12-07T06:55:10;2.00;99.90
20400;DHT22;10359;53.596;22.520;2022-12-07T06:57:59;1.90;99.90
20400;DHT22;10359;53.596;22.520;2022-12-07T07:00:49;1.90;99.90
20400;DHT22;10359;53.596;22.520;2022-12-07T07:03:40;1.90;99.90
20400;DHT22;10359;53.596;22.520;2022-12-07T07:06:31;1.90;99.90
20400;DHT22;10359;53.596;22.520;2022-12-07T07:09:21;1.90;99.90
20400;DHT22;10359;53.596;22.520;2022-12-07T07:12:11;1.90;99.90
20400;DHT22;10359;53.596;22.520;2022-12-07T07:15:01;2.00;99.90
20400;DHT22;10359;53.596;22.520;2022-12-07T07:17:51;2.00;99.90
20400;DHT22;10359;53.596;22.520;2022-12-07T07:20:41;2.00;99.90
20400;DHT22;10359;53.596;22.520;2022-12-07T07:23:32;2.00;99.90
20400;DHT22;10359;53.596;22.520;2022-12-07T07:26:22;2.00;99.90
20400;DHT22;10359;53.596;22.520;2022-12-07T07:29:12;2.10;99.90
20400;DHT22;10359;53.596;22.520;2022-12-07T07:32:02;2.10;99.90
20400;DHT22;10359;53.596;22.520;2022-12-07T07:34:53;2.00;99.90
20400;DHT22;10359;53.596;22.520;2022-12-07T07:37:43;2.00;99.90
20400;DHT22;10359;53.596;22.520;2022-12-07T07:40:35;2.00;99.90
20400;DHT22;10359;53.596;22.520;2022-12-07T07:43:26;2.00;99.90
20400;DHT22;10359;53.596;22.520;2022-12-07T07:46:15;2.00;99.90
20400;DHT22;10359;53.596;22.520;2022-12-07T07:49:05;2.10;99.90
20400;DHT22;10359;53.596;22.520;2022-12-07T07:51:55;2.20;99.90
20400;DHT22;10359;53.596;22.520;2022-12-07T07:54:45;2.20;99.90
20400;DHT22;10359;53.596;22.520;2022-12-07T07:57:37;2.30;99.90
20400;DHT22;10359;53.596;22.520;2022-12-07T08:00:27;2.30;99.90
20400;DHT22;10359;53.596;22.520;2022-12-07T08:03:16;2.40;99.90
20400;DHT22;10359;53.596;22.520;2022-12-07T08:06:06;2.30;99.90
20400;DHT22;10359;53.596;22.520;2022-12-07T08:08:56;2.40;99.90
20400;DHT22;10359;53.596;22.520;2022-12-07T08:11:46;2.30;99.90
20400;DHT22;10359;53.596;22.520;2022-12-07T08:14:37;2.40;99.90
20400;DHT22;10359;53.596;22.520;2022-12-07T08:17:27;2.40;99.90
20400;DHT22;10359;53.596;22.520;2022-12-07T08:20:17;2.50;99.90
20400;DHT22;10359;53.596;22.520;2022-12-07T08:23:07;2.50;99.90
20400;DHT22;10359;53.596;22.520;2022-12-07T08:26:00;2.40;99.90
20400;DHT22;10359;53.596;22.520;2022-12-07T08:28:50;2.50;99.90
20400;DHT22;10359;53.596;22.520;2022-12-07T08:31:43;2.50;99.90
20400;DHT22;10359;53.596;22.520;2022-12-07T08:34:33;2.60;99.90
20400;DHT22;10359;53.596;22.520;2022-12-07T08:37:23;2.70;99.90
20400;DHT22;10359;53.596;22.520;2022-12-07T08:40:13;2.70;99.90
20400;DHT22;10359;53.596;22.520;2022-12-07T08:43:04;2.70;99.90
20400;DHT22;10359;53.596;22.520;2022-12-07T08:45:58;2.70;99.90
20400;DHT22;10359;53.596;22.520;2022-12-07T08:48:57;2.70;99.90
20400;DHT22;10359;53.596;22.520;2022-12-07T08:51:48;2.70;99.90
20400;DHT22;10359;53.596;22.520;2022-12-07T08:54:39;2.80;99.90
20400;DHT22;10359;53.596;22.520;2022-12-07T08:57:30;2.80;99.90
20400;DHT22;10359;53.596;22.520;2022-12-07T09:00:20;2.90;99.90
20400;DHT22;10359;53.596;22.520;2022-12-07T09:03:10;2.90;99.90
20400;DHT22;10359;53.596;22.520;2022-12-07T09:06:01;3.00;99.90
20400;DHT22;10359;53.596;22.520;2022-12-07T09:08:53;2.90;99.90
20400;DHT22;10359;53.596;22.520;2022-12-07T09:11:45;2.90;99.90
20400;DHT22;10359;53.596;22.520;2022-12-07T09:14:35;2.90;99.90
20400;DHT22;10359;53.596;22.520;2022-12-07T09:17:24;2.90;99.90
20400;DHT22;10359;53.596;22.520;2022-12-07T09:20:14;2.90;99.90
20400;DHT22;10359;53.596;22.520;2022-12-07T09:23:07;2.80;99.90
20400;DHT22;10359;53.596;22.520;2022-12-07T09:25:59;2.90;99.90
20400;DHT22;10359;53.596;22.520;2022-12-07T09:28:59;3.00;99.90
20400;DHT22;10359;53.596;22.520;2022-12-07T09:31:55;3.10;99.90
20400;DHT22;10359;53.596;22.520;2022-12-07T09:35:01;3.10;99.90
20400;DHT22;10359;53.596;22.520;2022-12-07T09:37:58;3.20;99.90
20400;DHT22;10359;53.596;22.520;2022-12-07T09:40:50;3.10;99.90
20400;DHT22;10359;53.596;22.520;2022-12-07T09:43:40;3.20;99.90
20400;DHT22;10359;53.596;22.520;2022-12-07T09:46:34;3.10;99.90
20400;DHT22;10359;53.596;22.520;2022-12-07T09:49:28;3.20;99.90
20400;DHT22;10359;53.596;22.520;2022-12-07T09:52:26;3.20;99.90
20400;DHT22;10359;53.596;22.520;2022-12-07T09:55:27;3.20;99.90
20400;DHT22;10359;53.596;22.520;2022-12-07T09:58:21;3.20;99.90
20400;DHT22;10359;53.596;22.520;2022-12-07T10:01:13;3.10;99.90
20400;DHT22;10359;53.596;22.520;2022-12-07T10:04:11;3.00;99.90
20400;DHT22;10359;53.596;22.520;2022-12-07T10:07:01;3.10;99.90
20400;DHT22;10359;53.596;22.520;2022-12-07T10:09:51;3.10;99.90
20400;DHT22;10359;53.596;22.520;2022-12-07T10:12:57;3.10;99.90
20400;DHT22;10359;53.596;22.520;2022-12-07T10:15:51;3.00;99.90
20400;DHT22;10359;53.596;22.520;2022-12-07T10:18:42;3.00;99.90
20400;DHT22;10359;53.596;22.520;2022-12-07T10:21:32;3.10;99.90
20400;DHT22;10359;53.596;22.520;2022-12-07T10:24:22;3.20;99.90
20400;DHT22;10359;53.596;22.520;2022-12-07T10:27:20;3.20;99.90
20400;DHT22;10359;53.596;22.520;2022-12-07T10:30:14;3.30;99.90
20400;DHT22;10359;53.596;22.520;2022-12-07T10:33:27;3.30;99.90
20400;DHT22;10359;53.596;22.520;2022-12-07T10:36:20;3.40;99.90
20400;DHT22;10359;53.596;22.520;2022-12-07T10:39:13;3.40;99.90
20400;DHT22;10359;53.596;22.520;2022-12-07T10:42:04;3.50;99.90
20400;DHT22;10359;53.596;22.520;2022-12-07T10:45:08;3.50;99.90
20400;DHT22;10359;53.596;22.520;2022-12-07T10:48:02;3.40;99.90
20400;DHT22;10359;53.596;22.520;2022-12-07T10:51:02;3.40;99.90
20400;DHT22;10359;53.596;22.520;2022-12-07T10:54:08;3.50;99.90
20400;DHT22;10359;53.596;22.520;2022-12-07T10:57:17;3.40;99.90
20400;DHT22;10359;53.596;22.520;2022-12-07T11:00:15;3.30;99.90
20400;DHT22;10359;53.596;22.520;2022-12-07T11:03:22;3.40;99.90
20400;DHT22;10359;53.596;22.520;2022-12-07T11:06:24;3.40;99.90
20400;DHT22;10359;53.596;22.520;2022-12-07T11:13:10;3.40;99.90
20400;DHT22;10359;53.596;22.520;2022-12-07T11:19:25;3.40;99.90
20400;DHT22;10359;53.596;22.520;2022-12-07T11:22:24;3.50;99.90
20400;DHT22;10359;53.596;22.520;2022-12-07T11:25:23;3.50;99.90
20400;DHT22;10359;53.596;22.520;2022-12-07T11:28:27;3.60;99.90
20400;DHT22;10359;53.596;22.520;2022-12-07T11:31:26;3.40;99.90
20400;DHT22;10359;53.596;22.520;2022-12-07T11:34:27;3.60;99.90
20400;DHT22;10359;53.596;22.520;2022-12-07T11:37:28;3.60;99.90
20400;DHT22;10359;53.596;22.520;2022-12-07T11:40:28;3.70;99.90
20400;DHT22;10359;53.596;22.520;2022-12-07T11:43:26;3.70;99.90
20400;DHT22;10359;53.596;22.520;2022-12-07T11:46:17;3.60;99.90
20400;DHT22;10359;53.596;22.520;2022-12-07T11:49:11;3.50;99.90
20400;DHT22;10359;53.596;22.520;2022-12-07T11:52:04;3.40;99.90
20400;DHT22;10359;53.596;22.520;2022-12-07T11:54:58;3.40;99.90
20400;DHT22;10359;53.596;22.520;2022-12-07T11:57:54;3.30;99.90
20400;DHT22;10359;53.596;22.520;2022-12-07T12:00:49;3.30;99.90
20400;DHT22;10359;53.596;22.520;2022-12-07T12:03:44;3.30;99.90
20400;DHT22;10359;53.596;22.520;2022-12-07T12:06:41;3.30;99.90
20400;DHT22;10359;53.596;22.520;2022-12-07T12:09:34;3.30;99.90
20400;DHT22;10359;53.596;22.520;2022-12-07T12:12:45;3.30;99.90
20400;DHT22;10359;53.596;22.520;2022-12-07T12:16:08;3.20;99.90
20400;DHT22;10359;53.596;22.520;2022-12-07T12:19:20;3.00;99.90
20400;DHT22;10359;53.596;22.520;2022-12-07T12:22:16;3.00;99.90
20400;DHT22;10359;53.596;22.520;2022-12-07T12:25:15;2.70;99.90
20400;DHT22;10359;53.596;22.520;2022-12-07T12:28:20;2.80;99.90
20400;DHT22;10359;53.596;22.520;2022-12-07T12:31:14;2.80;99.90
20400;DHT22;10359;53.596;22.520;2022-12-07T12:34:30;2.80;99.90
20400;DHT22;10359;53.596;22.520;2022-12-07T12:37:42;2.80;99.90
20400;DHT22;10359;53.596;22.520;2022-12-07T12:40:40;2.90;99.90
20400;DHT22;10359;53.596;22.520;2022-12-07T12:43:43;2.80;99.90
20400;DHT22;10359;53.596;22.520;2022-12-07T12:46:38;2.70;99.90
20400;DHT22;10359;53.596;22.520;2022-12-07T12:49:38;2.60;99.90
20400;DHT22;10359;53.596;22.520;2022-12-07T12:52:55;2.70;99.90
20400;DHT22;10359;53.596;22.520;2022-12-07T12:59:30;2.60;99.90
20400;DHT22;10359;53.596;22.520;2022-12-07T13:02:22;2.60;99.90
20400;DHT22;10359;53.596;22.520;2022-12-07T13:05:19;2.50;99.90
20400;DHT22;10359;53.596;22.520;2022-12-07T13:08:16;2.60;99.90
20400;DHT22;10359;53.596;22.520;2022-12-07T13:11:24;2.40;99.90
20400;DHT22;10359;53.596;22.520;2022-12-07T13:14:38;2.40;99.90
20400;DHT22;10359;53.596;22.520;2022-12-07T13:18:03;2.50;99.90
20400;DHT22;10359;53.596;22.520;2022-12-07T13:20:55;2.50;99.90
20400;DHT22;10359;53.596;22.520;2022-12-07T13:23:55;2.50;99.90
20400;DHT22;10359;53.596;22.520;2022-12-07T13:26:45;2.50;99.90
20400;DHT22;10359;53.596;22.520;2022-12-07T13:29:38;2.40;99.90
20400;DHT22;10359;53.596;22.520;2022-12-07T13:32:28;2.30;99.90
20400;DHT22;10359;53.596;22.520;2022-12-07T13:35:31;2.40;99.90
20400;DHT22;10359;53.596;22.520;2022-12-07T13:38:27;2.40;99.90
20400;DHT22;10359;53.596;22.520;2022-12-07T13:41:19;2.40;99.90
20400;DHT22;10359;53.596;22.520;2022-12-07T13:44:11;2.30;99.90
20400;DHT22;10359;53.596;22.520;2022-12-07T13:47:06;2.30;99.90
20400;DHT22;10359;53.596;22.520;2022-12-07T13:49:57;2.30;99.90
20400;DHT22;10359;53.596;22.520;2022-12-07T13:52:46;2.30;99.90
20400;DHT22;10359;53.596;22.520;2022-12-07T13:55:44;2.30;99.90
20400;DHT22;10359;53.596;22.520;2022-12-07T13:58:41;2.20;99.90
20400;DHT22;10359;53.596;22.520;2022-12-07T14:01:31;2.20;99.90
20400;DHT22;10359;53.596;22.520;2022-12-07T14:04:36;2.10;99.90
20400;DHT22;10359;53.596;22.520;2022-12-07T14:07:28;2.20;99.90
20400;DHT22;10359;53.596;22.520;2022-12-07T14:10:26;2.20;99.90
20400;DHT22;10359;53.596;22.520;2022-12-07T14:13:28;2.20;99.90
20400;DHT22;10359;53.596;22.520;2022-12-07T14:16:24;2.30;99.90
20400;DHT22;10359;53.596;22.520;2022-12-07T14:19:49;2.40;99.90
20400;DHT22;10359;53.596;22.520;2022-12-07T14:22:39;2.30;99.90
20400;DHT22;10359;53.596;22.520;2022-12-07T14:25:32;2.30;99.90
20400;DHT22;10359;53.596;22.520;2022-12-07T14:28:27;2.30;99.90
20400;DHT22;10359;53.596;22.520;2022-12-07T14:31:18;2.20;99.90
20400;DHT22;10359;53.596;22.520;2022-12-07T14:34:19;2.20;99.90
20400;DHT22;10359;53.596;22.520;2022-12-07T14:37:11;2.30;99.90
20400;DHT22;10359;53.596;22.520;2022-12-07T14:40:00;2.20;99.90
20400;DHT22;10359;53.596;22.520;2022-12-07T14:42:52;2.20;99.90
20400;DHT22;10359;53.596;22.520;2022-12-07T14:45:43;2.30;99.90
20400;DHT22;10359;53.596;22.520;2022-12-07T14:48:33;2.20;99.90
20400;DHT22;10359;53.596;22.520;2022-12-07T14:51:43;2.20;99.90
20400;DHT22;10359;53.596;22.520;2022-12-07T14:54:55;2.20;99.90
20400;DHT22;10359;53.596;22.520;2022-12-07T14:57:45;2.20;99.90
20400;DHT22;10359;53.596;22.520;2022-12-07T15:00:34;2.20;99.90
20400;DHT22;10359;53.596;22.520;2022-12-07T15:03:24;2.10;99.90
20400;DHT22;10359;53.596;22.520;2022-12-07T15:06:16;2.20;99.90
20400;DHT22;10359;53.596;22.520;2022-12-07T15:09:06;2.20;99.90
20400;DHT22;10359;53.596;22.520;2022-12-07T15:11:57;2.20;99.90
20400;DHT22;10359;53.596;22.520;2022-12-07T15:14:47;2.20;99.90
20400;DHT22;10359;53.596;22.520;2022-12-07T15:17:37;2.00;99.90
20400;DHT22;10359;53.596;22.520;2022-12-07T15:20:27;2.10;99.90
20400;DHT22;10359;53.596;22.520;2022-12-07T15:23:17;2.10;99.90
20400;DHT22;10359;53.596;22.520;2022-12-07T15:26:07;2.10;99.90
20400;DHT22;10359;53.596;22.520;2022-12-07T15:28:58;2.10;99.90
20400;DHT22;10359;53.596;22.520;2022-12-07T15:31:48;2.10;99.90
20400;DHT22;10359;53.596;22.520;2022-12-07T15:34:44;2.10;99.90
20400;DHT22;10359;53.596;22.520;2022-12-07T15:37:34;2.10;99.90
20400;DHT22;10359;53.596;22.520;2022-12-07T15:40:23;2.10;99.90
20400;DHT22;10359;53.596;22.520;2022-12-07T15:43:13;2.10;99.90
20400;DHT22;10359;53.596;22.520;2022-12-07T15:46:18;2.10;99.90
20400;DHT22;10359;53.596;22.520;2022-12-07T15:49:11;2.00;99.90
20400;DHT22;10359;53.596;22.520;2022-12-07T15:52:01;2.00;99.90
20400;DHT22;10359;53.596;22.520;2022-12-07T15:54:51;2.00;99.90
20400;DHT22;10359;53.596;22.520;2022-12-07T15:57:41;2.00;99.90
20400;DHT22;10359;53.596;22.520;2022-12-07T16:00:30;2.10;99.90
20400;DHT22;10359;53.596;22.520;2022-12-07T16:03:22;2.00;99.90
20400;DHT22;10359;53.596;22.520;2022-12-07T16:06:12;2.00;99.90
20400;DHT22;10359;53.596;22.520;2022-12-07T16:09:05;2.00;99.90
20400;DHT22;10359;53.596;22.520;2022-12-07T16:11:55;2.10;99.90
20400;DHT22;10359;53.596;22.520;2022-12-07T16:14:45;2.00;99.90
20400;DHT22;10359;53.596;22.520;2022-12-07T16:17:35;2.00;99.90
20400;DHT22;10359;53.596;22.520;2022-12-07T16:20:26;2.00;99.90
20400;DHT22;10359;53.596;22.520;2022-12-07T16:23:16;2.10;99.90
20400;DHT22;10359;53.596;22.520;2022-12-07T16:26:08;2.10;99.90
20400;DHT22;10359;53.596;22.520;2022-12-07T16:28:58;2.10;99.90
20400;DHT22;10359;53.596;22.520;2022-12-07T16:31:48;2.10;99.90
20400;DHT22;10359;53.596;22.520;2022-12-07T16:34:40;2.10;99.90
20400;DHT22;10359;53.596;22.520;2022-12-07T16:37:31;2.10;99.90
20400;DHT22;10359;53.596;22.520;2022-12-07T16:40:21;2.00;99.90
20400;DHT22;10359;53.596;22.520;2022-12-07T16:43:13;2.10;99.90
20400;DHT22;10359;53.596;22.520;2022-12-07T16:46:03;2.10;99.90
20400;DHT22;10359;53.596;22.520;2022-12-07T16:48:53;2.20;99.90
20400;DHT22;10359;53.596;22.520;2022-12-07T16:51:43;2.20;99.90
20400;DHT22;10359;53.596;22.520;2022-12-07T16:54:35;2.20;99.90
20400;DHT22;10359;53.596;22.520;2022-12-07T16:57:25;2.30;99.90
20400;DHT22;10359;53.596;22.520;2022-12-07T17:00:16;2.20;99.90
20400;DHT22;10359;53.596;22.520;2022-12-07T17:03:08;2.20;99.90
20400;DHT22;10359;53.596;22.520;2022-12-07T17:06:10;2.20;99.90
20400;DHT22;10359;53.596;22.520;2022-12-07T17:09:01;2.20;99.90
20400;DHT22;10359;53.596;22.520;2022-12-07T17:11:53;2.10;99.90
20400;DHT22;10359;53.596;22.520;2022-12-07T17:14:43;2.20;99.90
20400;DHT22;10359;53.596;22.520;2022-12-07T17:17:53;2.20;99.90
20400;DHT22;10359;53.596;22.520;2022-12-07T17:20:43;2.10;99.90
20400;DHT22;10359;53.596;22.520;2022-12-07T17:23:34;2.00;99.90
20400;DHT22;10359;53.596;22.520;2022-12-07T17:26:26;2.10;99.90
20400;DHT22;10359;53.596;22.520;2022-12-07T17:29:23;2.10;99.90
20400;DHT22;10359;53.596;22.520;2022-12-07T17:32:14;2.10;99.90
20400;DHT22;10359;53.596;22.520;2022-12-07T17:35:05;2.10;99.90
20400;DHT22;10359;53.596;22.520;2022-12-07T17:37:56;2.20;99.90
20400;DHT22;10359;53.596;22.520;2022-12-07T17:40:46;2.20;99.90
20400;DHT22;10359;53.596;22.520;2022-12-07T17:43:36;2.20;99.90
20400;DHT22;10359;53.596;22.520;2022-12-07T17:46:29;2.20;99.90
20400;DHT22;10359;53.596;22.520;2022-12-07T17:49:19;2.20;99.90
20400;DHT22;10359;53.596;22.520;2022-12-07T17:52:12;2.30;99.90
20400;DHT22;10359;53.596;22.520;2022-12-07T17:55:19;2.30;99.90
20400;DHT22;10359;53.596;22.520;2022-12-07T17:58:10;2.30;99.90
20400;DHT22;10359;53.596;22.520;2022-12-07T18:01:00;2.30;99.90
20400;DHT22;10359;53.596;22.520;2022-12-07T18:03:52;2.30;99.90
20400;DHT22;10359;53.596;22.520;2022-12-07T18:06:42;2.30;99.90
20400;DHT22;10359;53.596;22.520;2022-12-07T18:09:38;2.30;99.90
20400;DHT22;10359;53.596;22.520;2022-12-07T18:12:29;2.30;99.90
20400;DHT22;10359;53.596;22.520;2022-12-07T18:15:20;2.30;99.90
20400;DHT22;10359;53.596;22.520;2022-12-07T18:18:10;2.30;99.90
20400;DHT22;10359;53.596;22.520;2022-12-07T18:21:06;2.20;99.90
20400;DHT22;10359;53.596;22.520;2022-12-07T18:23:58;2.30;99.90
20400;DHT22;10359;53.596;22.520;2022-12-07T18:26:51;2.30;99.90